Time;durP1;ratioP1;P1;durP2;ratioP2;P2;SDS_P1;SDS_P2;PMS_P1;PMS_P2;Temp;Humidity;BMP_temperature;BMP_pressure;BME280_temperature;BME280_humidity;BME280_pressure;Samples;Min_cycle;Max_cycle;Signal;HPM_P1;HPM_P2
2022/09/05 00:02:33;;;;;;;4.38;3.53;;;;;;;16.43;76.05;96486.72;10327890;28;98576;-60
2022/09/05 00:07:45;;;;;;;5.10;3.13;;;;;;;16.25;76.15;96489.66;10377154;28;97973;-61
2022/09/05 00:13:05;;;;;;;5.32;3.28;;;;;;;16.31;76.55;96484.66;10373635;28;96955;-61
2022/09/05 00:18:28;;;;;;;6.72;3.60;;;;;;;16.30;76.90;96485.69;10383650;27;96985;-60
2022/09/05 00:24:05;;;;;;;6.63;3.70;;;;;;;16.15;77.55;96478.53;10374645;28;98387;-60
2022/09/05 00:29:51;;;;;;;7.75;3.85;;;;;;;16.03;77.86;96477.31;10377205;28;96773;-60
2022/09/05 00:35:29;;;;;;;6.95;3.60;;;;;;;16.16;77.82;96482.81;10375052;28;96804;-59
2022/09/05 00:40:37;;;;;;;8.02;3.85;;;;;;;16.20;77.05;96489.34;10386429;28;96726;-59
2022/09/05 00:45:47;;;;;;;7.80;3.35;;;;;;;16.23;77.48;96488.19;10353896;28;96850;-60
2022/09/05 00:51:00;;;;;;;8.02;3.53;;;;;;;16.19;77.98;96487.75;10370944;28;98359;-59
2022/09/05 00:56:18;;;;;;;6.32;3.60;;;;;;;16.08;78.41;96493.41;10367022;28;96830;-62
2022/09/05 01:01:41;;;;;;;5.28;3.35;;;;;;;16.08;78.75;96497.88;10374897;28;96989;-59
2022/09/05 01:07:01;;;;;;;6.28;3.75;;;;;;;16.15;78.63;96496.97;10367109;28;96847;-59
2022/09/05 01:12:21;;;;;;;5.60;3.60;;;;;;;16.16;78.57;96488.09;10361046;28;96884;-59
2022/09/05 01:17:37;;;;;;;3.95;3.55;;;;;;;16.17;78.82;96479.19;10337875;28;98657;-59
2022/09/05 01:22:59;;;;;;;4.78;3.55;;;;;;;16.21;78.62;96469.13;10342406;28;97919;-60
2022/09/05 01:28:18;;;;;;;6.53;3.42;;;;;;;16.29;78.46;96473.47;10346968;28;99212;-60
2022/09/05 01:33:52;;;;;;;4.43;3.47;;;;;;;16.42;78.08;96466.59;10355494;28;96909;-59
2022/09/05 01:39:03;;;;;;;4.75;3.10;;;;;;;16.52;77.18;96466.38;10388269;28;98527;-59
2022/09/05 01:44:41;;;;;;;4.10;3.10;;;;;;;16.54;76.42;96469.63;10347784;28;98658;-60
2022/09/05 01:49:55;;;;;;;7.13;3.25;;;;;;;16.54;76.52;96474.91;10366221;28;98699;-61
2022/09/05 01:55:22;;;;;;;3.58;3.13;;;;;;;16.51;76.35;96464.72;10372189;28;96906;-59
2022/09/05 02:00:35;;;;;;;8.98;3.65;;;;;;;16.53;76.37;96480.38;10362093;28;97737;-60
2022/09/05 02:06:13;;;;;;;4.78;3.33;;;;;;;16.49;77.25;96477.28;10334556;28;99427;-59
2022/09/05 02:11:16;;;;;;;4.63;3.53;;;;;;;16.35;77.63;96484.16;10372587;28;97285;-60
2022/09/05 02:16:44;;;;;;;7.00;3.70;;;;;;;16.27;78.35;96478.13;10376581;28;98129;-64
2022/09/05 02:21:57;;;;;;;5.95;3.78;;;;;;;16.25;78.44;96470.38;10372780;28;99285;-59
2022/09/05 02:27:11;;;;;;;4.93;3.63;;;;;;;16.27;78.16;96473.66;10356020;28;96822;-60
2022/09/05 02:33:05;;;;;;;5.43;4.22;;;;;;;16.16;78.58;96479.38;10357714;28;96816;-61
2022/09/05 02:38:15;;;;;;;6.70;4.40;;;;;;;16.04;78.70;96471.06;10381852;28;97012;-59
2022/09/05 02:43:45;;;;;;;6.32;4.18;;;;;;;15.96;78.79;96474.53;10358511;28;97554;-60
2022/09/05 02:49:13;;;;;;;6.68;4.40;;;;;;;15.93;79.45;96476.72;10383150;28;97568;-59
2022/09/05 02:54:41;;;;;;;7.60;4.15;;;;;;;15.94;79.50;96476.53;10363170;28;98453;-61
2022/09/05 03:00:10;;;;;;;4.32;3.38;;;;;;;15.94;79.06;96473.91;10355957;28;98502;-64
2022/09/05 03:05:22;;;;;;;7.50;4.00;;;;;;;15.97;79.51;96483.28;10386055;28;97426;-59
2022/09/05 03:10:51;;;;;;;6.72;4.13;;;;;;;15.97;79.45;96475.38;10379707;28;98116;-59
2022/09/05 03:16:17;;;;;;;10.07;4.28;;;;;;;15.83;79.63;96475.13;10269970;28;96894;-60
2022/09/05 03:21:50;;;;;;;7.63;4.50;;;;;;;15.76;79.94;96481.28;10269263;28;97282;-60
2022/09/05 03:27:20;;;;;;;8.48;4.10;;;;;;;15.62;79.91;96459.16;10119605;28;97185;-59
2022/09/05 03:33:16;;;;;;;5.78;3.78;;;;;;;15.64;79.32;96473.78;10117662;28;98349;-59
2022/09/05 03:38:57;;;;;;;8.02;4.10;;;;;;;15.41;80.05;96475.50;10020754;29;97074;-61
2022/09/05 03:44:14;;;;;;;9.77;4.32;;;;;;;15.30;80.36;96482.81;10019206;29;96865;-59
2022/09/05 03:49:43;;;;;;;6.78;4.28;;;;;;;15.27;80.73;96480.53;10021639;29;96878;-60
2022/09/05 03:55:27;;;;;;;7.45;4.63;;;;;;;15.26;80.93;96475.41;10111365;28;97499;-61
2022/09/05 04:01:03;;;;;;;7.15;5.03;;;;;;;15.15;80.94;96484.53;10123866;28;97957;-59
2022/09/05 04:06:33;;;;;;;9.27;4.82;;;;;;;15.05;81.54;96474.19;10258515;28;97549;-59
2022/09/05 04:12:01;;;;;;;7.82;5.25;;;;;;;15.04;81.55;96480.41;10301998;28;97862;-62
2022/09/05 04:17:10;;;;;;;7.10;4.35;;;;;;;15.04;80.82;96487.50;10369699;28;98135;-59
2022/09/05 04:22:22;;;;;;;7.63;4.95;;;;;;;15.02;81.56;96497.38;10371302;28;96891;-59
2022/09/05 04:27:35;;;;;;;8.32;5.70;;;;;;;14.96;81.59;96498.03;10368770;28;97963;-62
2022/09/05 04:32:50;;;;;;;9.32;5.85;;;;;;;14.92;81.56;96498.41;10375217;28;96990;-60
2022/09/05 04:37:58;;;;;;;12.65;6.22;;;;;;;14.84;81.82;96497.59;10390165;28;96869;-60
2022/09/05 04:43:06;;;;;;;8.80;5.75;;;;;;;14.77;82.31;96507.16;10375095;28;96744;-58
2022/09/05 04:48:13;;;;;;;8.27;5.72;;;;;;;14.67;82.16;96510.75;10399493;28;96746;-59
2022/09/05 04:53:35;;;;;;;6.38;4.95;;;;;;;14.68;81.91;96517.69;10387162;28;97325;-59
2022/09/05 04:58:45;;;;;;;6.55;5.22;;;;;;;14.64;82.01;96526.88;10376790;28;96880;-60
2022/09/05 05:04:12;;;;;;;7.00;4.90;;;;;;;14.64;82.33;96537.38;10373989;28;97796;-59
2022/09/05 05:09:42;;;;;;;6.72;5.53;;;;;;;14.63;82.74;96533.13;10380451;28;97079;-59
2022/09/05 05:14:51;;;;;;;7.50;5.47;;;;;;;14.55;82.81;96541.00;10393717;28;96801;-58
2022/09/05 05:20:23;;;;;;;8.68;5.57;;;;;;;14.53;84.00;96543.00;10346354;28;97641;-59
2022/09/05 05:25:50;;;;;;;8.95;5.05;;;;;;;14.63;82.75;96543.66;10340261;28;99078;-60
2022/09/05 05:30:56;;;;;;;9.48;5.28;;;;;;;14.75;83.10;96563.34;10384220;28;97649;-59
2022/09/05 05:36:08;;;;;;;6.63;4.65;;;;;;;14.83;82.07;96565.16;10355079;28;97411;-59
2022/09/05 05:41:19;;;;;;;8.52;4.57;;;;;;;14.84;82.02;96566.00;10392595;28;96859;-59
2022/09/05 05:46:35;;;;;;;6.60;4.25;;;;;;;14.88;82.67;96568.09;10351231;28;96839;-59
2022/09/05 05:51:45;;;;;;;7.40;4.30;;;;;;;14.99;82.00;96574.84;10355165;28;98686;-60
2022/09/05 05:57:35;;;;;;;7.88;4.30;;;;;;;15.22;81.50;96579.41;10374116;28;98087;-60
2022/09/05 06:03:12;;;;;;;5.97;3.83;;;;;;;15.42;81.21;96582.47;10228021;28;98176;-61
2022/09/05 06:08:44;;;;;;;8.55;4.00;;;;;;;15.60;80.74;96592.78;10236781;28;98557;-59
2022/09/05 06:14:40;;;;;;;7.25;4.60;;;;;;;15.80;80.69;96588.75;10238182;28;96937;-59
2022/09/05 06:20:51;;;;;;;6.03;4.00;;;;;;;16.00;79.99;96588.34;10080813;28;97870;-59
2022/09/05 06:26:48;;;;;;;8.27;4.60;;;;;;;16.09;80.09;96584.66;9883924;29;97040;-60
2022/09/05 06:32:04;;;;;;;5.45;4.15;;;;;;;16.20;79.98;96593.97;9881665;29;96987;-59
2022/09/05 06:37:16;;;;;;;6.28;4.00;;;;;;;16.30;80.08;96593.75;9926341;29;97076;-59
2022/09/05 06:42:26;;;;;;;5.10;3.78;;;;;;;16.32;79.14;96594.41;10030047;29;97047;-60
2022/09/05 06:47:46;;;;;;;7.13;3.95;;;;;;;16.41;79.24;96593.34;10027871;29;97227;-60
2022/09/05 06:53:38;;;;;;;6.75;4.00;;;;;;;16.52;79.20;96592.94;10035195;28;96823;-59
2022/09/05 06:59:10;;;;;;;7.90;4.30;;;;;;;16.67;78.87;96598.25;10210846;28;97204;-59
2022/09/05 07:04:26;;;;;;;6.20;3.92;;;;;;;16.85;79.01;96599.78;10382007;28;96779;-59
2022/09/05 07:09:59;;;;;;;6.82;3.90;;;;;;;16.96;78.91;96594.91;10370251;28;98268;-59
2022/09/05 07:15:13;;;;;;;6.85;3.90;;;;;;;17.12;78.87;96598.41;10390521;28;97117;-59
2022/09/05 07:20:21;;;;;;;6.27;3.77;;;;;;;17.21;78.30;96599.13;10396992;28;97268;-59
2022/09/05 07:25:28;;;;;;;4.90;3.70;;;;;;;17.24;77.90;96602.25;10377618;28;96655;-59
2022/09/05 07:30:46;;;;;;;4.68;3.85;;;;;;;17.30;77.55;96601.53;10383532;28;97169;-59
2022/09/05 07:35:51;;;;;;;4.03;3.63;;;;;;;17.35;78.26;96599.16;10393817;28;96789;-58
2022/09/05 07:40:59;;;;;;;6.85;3.63;;;;;;;17.51;77.89;96602.63;10397858;28;96938;-59
2022/09/05 07:46:10;;;;;;;4.55;3.30;;;;;;;17.65;77.51;96599.16;10401334;27;96732;-60
2022/09/05 07:51:22;;;;;;;5.38;3.78;;;;;;;17.76;77.72;96603.97;10383809;28;96713;-59
2022/09/05 07:56:48;;;;;;;5.15;3.58;;;;;;;17.86;77.04;96610.84;10396943;28;97068;-59
2022/09/05 08:02:13;;;;;;;4.70;3.55;;;;;;;17.99;76.70;96600.41;10398803;28;96797;-60
2022/09/05 08:07:21;;;;;;;5.97;3.53;;;;;;;18.09;76.81;96598.28;10376021;28;96839;-59
2022/09/05 08:12:47;;;;;;;4.40;3.17;;;;;;;18.22;77.01;96596.78;10394367;28;96950;-59
2022/09/05 08:18:16;;;;;;;6.10;3.55;;;;;;;18.35;76.43;96591.66;10400045;28;97157;-61
2022/09/05 08:23:41;;;;;;;6.47;3.78;;;;;;;18.43;75.87;96577.47;10366940;28;96746;-59
2022/09/05 08:28:55;;;;;;;5.63;3.35;;;;;;;18.60;75.03;96581.53;10397945;28;97087;-59
2022/09/05 08:34:02;;;;;;;6.20;4.03;;;;;;;18.81;74.48;96583.34;10395094;28;96682;-59
2022/09/05 08:39:09;;;;;;;6.20;3.65;;;;;;;18.95;72.28;96586.09;10399746;28;97078;-59
2022/09/05 08:44:16;;;;;;;3.88;3.10;;;;;;;19.04;71.85;96588.44;10390738;28;97244;-59
2022/09/05 08:49:57;;;;;;;5.90;3.45;;;;;;;19.23;71.70;96584.28;10378595;28;97211;-60
2022/09/05 08:55:13;;;;;;;3.78;2.85;;;;;;;19.41;71.32;96588.25;10397123;28;97300;-60
2022/09/05 09:00:18;;;;;;;5.53;3.22;;;;;;;19.54;70.78;96579.56;10393737;28;97007;-59
2022/09/05 09:05:46;;;;;;;4.30;3.10;;;;;;;19.71;69.83;96575.56;10375010;28;96833;-60
2022/09/05 09:11:15;;;;;;;5.38;2.80;;;;;;;19.90;68.36;96570.59;10401177;28;96775;-59
2022/09/05 09:16:29;;;;;;;6.25;2.97;;;;;;;19.99;67.93;96570.22;10390375;28;96692;-60
2022/09/05 09:21:40;;;;;;;4.77;2.93;;;;;;;20.12;67.25;96569.44;10390660;27;97340;-60
2022/09/05 09:26:55;;;;;;;3.72;2.50;;;;;;;20.23;66.45;96565.38;10393498;28;96966;-59
2022/09/05 09:32:06;;;;;;;;;;;;;;;20.33;67.31;96557.03;10392142;28;97648;-59
2022/09/05 09:37:35;;;;;;;4.82;3.03;;;;;;;20.47;66.37;96552.56;10389402;28;97251;-60
2022/09/05 09:43:00;;;;;;;4.65;2.60;;;;;;;20.68;65.73;96551.56;10393418;28;97178;-59
2022/09/05 09:48:43;;;;;;;4.43;2.65;;;;;;;20.81;64.51;96551.59;10389016;28;96752;-59
2022/09/05 09:54:02;;;;;;;3.88;2.35;;;;;;;21.01;64.24;96543.59;10376729;28;96671;-59
2022/09/05 09:59:28;;;;;;;4.38;2.78;;;;;;;21.08;63.58;96536.44;10395141;28;96769;-60
2022/09/05 10:04:42;;;;;;;5.22;2.70;;;;;;;21.17;63.05;96529.06;10379220;28;96739;-59
2022/09/05 10:10:33;;;;;;;3.95;2.58;;;;;;;21.39;62.40;96521.66;10393881;28;96671;-60
2022/09/05 10:16:38;;;;;;;3.42;2.50;;;;;;;21.49;62.36;96516.72;10377731;28;96778;-59
2022/09/05 10:22:10;;;;;;;2.97;2.45;;;;;;;21.59;61.06;96516.28;10374759;28;97048;-60
2022/09/05 10:28:01;;;;;;;5.10;2.45;;;;;;;21.85;60.71;96503.94;10373857;28;97703;-61
2022/09/05 10:33:26;;;;;;;2.90;2.55;;;;;;;21.99;60.24;96502.84;10394941;27;96757;-59
2022/09/05 10:38:59;;;;;;;4.30;2.60;;;;;;;22.08;60.02;96490.09;10385751;28;97265;-59
2022/09/05 10:44:06;;;;;;;3.17;2.67;;;;;;;22.18;59.90;96481.63;10403882;27;96916;-60
2022/09/05 10:49:13;;;;;;;3.72;2.28;;;;;;;22.42;59.48;96477.34;10396755;27;96840;-59
2022/09/05 10:54:34;;;;;;;3.50;2.50;;;;;;;22.54;58.67;96475.66;10394958;28;96759;-60
2022/09/05 10:59:55;;;;;;;2.92;2.58;;;;;;;22.71;57.24;96472.44;10382155;28;96851;-59
2022/09/05 11:05:23;;;;;;;3.33;2.80;;;;;;;22.77;57.69;96468.94;10378289;28;96805;-59
2022/09/05 11:10:33;;;;;;;3.47;2.30;;;;;;;22.83;56.95;96467.22;10401591;28;96927;-59
2022/09/05 11:15:56;;;;;;;3.42;2.50;;;;;;;22.97;57.10;96452.72;10385544;28;97112;-59
2022/09/05 11:21:13;;;;;;;3.83;3.00;;;;;;;23.26;56.25;96445.84;10401660;28;96778;-60
2022/09/05 11:26:29;;;;;;;4.80;2.67;;;;;;;23.51;55.60;96442.31;10401286;28;96832;-59
2022/09/05 11:31:44;;;;;;;3.97;2.60;;;;;;;23.58;55.47;96442.22;10373841;28;97312;-60
2022/09/05 11:37:19;;;;;;;4.38;2.50;;;;;;;23.71;57.02;96432.19;10394612;28;96817;-60
2022/09/05 11:42:56;;;;;;;4.15;2.60;;;;;;;23.90;55.67;96430.28;10398088;27;97140;-60
2022/09/05 11:48:23;;;;;;;3.63;2.15;;;;;;;24.23;53.10;96434.34;10390275;28;96731;-60
2022/09/05 11:53:54;;;;;;;4.50;2.20;;;;;;;24.44;52.96;96421.50;10377898;28;97490;-59
2022/09/05 11:59:31;;;;;;;4.97;2.25;;;;;;;24.66;52.16;96411.03;10396984;28;96776;-60
2022/09/05 12:04:48;;;;;;;3.97;2.10;;;;;;;24.77;50.76;96407.53;10385459;27;97022;-60
2022/09/05 12:10:22;;;;;;;5.10;2.25;;;;;;;24.78;50.78;96401.16;10396709;28;97310;-60
2022/09/05 12:15:45;;;;;;;3.07;1.80;;;;;;;;;;10379513;28;96888;-60
2022/09/05 12:21:25;;;;;;;2.97;1.80;;;;;;;25.12;50.94;96393.34;10390773;28;96780;-59
2022/09/05 12:26:34;;;;;;;5.22;2.20;;;;;;;25.22;49.47;96387.41;10398778;28;97184;-60
2022/09/05 12:31:59;;;;;;;4.20;2.00;;;;;;;25.20;49.97;96379.63;10390509;28;96813;-59
2022/09/05 12:37:30;;;;;;;4.32;2.10;;;;;;;25.32;48.98;96381.41;10384102;28;96707;-61
2022/09/05 12:42:55;;;;;;;4.07;1.73;;;;;;;25.48;49.16;96380.69;10397259;27;97370;-59
2022/09/05 12:48:25;;;;;;;4.03;1.90;;;;;;;25.66;48.38;96370.84;10400325;28;96868;-60
2022/09/05 12:53:47;;;;;;;3.13;2.08;;;;;;;25.82;49.49;96364.72;10387511;28;96675;-60
2022/09/05 12:58:53;;;;;;;7.60;2.25;;;;;;;25.96;47.79;96355.34;10391476;28;97002;-60
2022/09/05 13:04:20;;;;;;;4.28;1.83;;;;;;;25.95;49.20;96356.38;10399557;28;96783;-59
2022/09/05 13:09:37;;;;;;;4.78;2.03;;;;;;;26.15;47.12;96352.41;10369268;28;97818;-60
2022/09/05 13:15:05;;;;;;;5.38;2.00;;;;;;;26.22;48.19;96341.53;10391272;28;97150;-61
2022/09/05 13:20:31;;;;;;;5.53;1.85;;;;;;;26.41;48.39;96340.22;10391454;28;96626;-60
2022/09/05 13:25:36;;;;;;;5.10;2.15;;;;;;;26.64;47.47;96328.50;10398556;28;96832;-60
2022/09/05 13:30:52;;;;;;;3.97;1.63;;;;;;;26.74;46.39;96323.28;10383502;28;97144;-60
2022/09/05 13:36:29;;;;;;;8.18;1.92;;;;;;;26.84;46.47;96311.06;10388819;28;96853;-60
2022/09/05 13:41:58;;;;;;;5.68;1.75;;;;;;;27.02;46.24;96300.06;10378358;28;96635;-62
2022/09/05 13:47:06;;;;;;;6.50;1.90;;;;;;;27.11;44.96;96300.44;10394467;28;97701;-60
2022/09/05 13:52:34;;;;;;;7.30;2.30;;;;;;;27.21;44.40;96288.97;10396750;28;96769;-60
2022/09/05 13:57:43;;;;;;;7.60;1.90;;;;;;;27.49;45.38;96286.06;10388638;28;96805;-60
2022/09/05 14:03:07;;;;;;;10.13;2.22;;;;;;;27.83;43.98;96280.44;10384724;28;96989;-61
2022/09/05 14:08:46;;;;;;;11.52;2.50;;;;;;;28.04;42.24;96275.25;10395478;28;96811;-60
2022/09/05 14:14:16;;;;;;;7.20;1.90;;;;;;;28.30;41.82;96272.75;10404433;27;96794;-60
2022/09/05 14:25:04;;;;;;;6.95;2.20;;;;;;;28.85;41.87;96251.78;10402109;27;96916;-60
2022/09/05 14:30:09;;;;;;;6.20;2.10;;;;;;;29.08;41.08;96255.91;10403850;28;97211;-60
2022/09/05 14:35:41;;;;;;;6.95;1.92;;;;;;;29.33;40.31;96242.50;10383206;28;97346;-60
2022/09/05 14:41:42;;;;;;;7.45;2.15;;;;;;;29.71;40.15;96251.16;10402362;28;96772;-60
2022/09/05 14:47:37;;;;;;;6.50;2.20;;;;;;;29.86;38.86;96241.44;10398159;27;96765;-60
2022/09/05 14:52:59;;;;;;;10.05;2.30;;;;;;;29.97;39.76;96229.56;10394524;27;96829;-60
2022/09/05 14:58:23;;;;;;;6.97;1.90;;;;;;;30.21;38.53;96247.88;10394405;28;97214;-60
2022/09/05 15:03:50;;;;;;;5.13;2.10;;;;;;;30.07;38.47;96239.53;10381762;28;96747;-60
2022/09/05 15:09:16;;;;;;;7.82;2.28;;;;;;;30.10;38.26;96228.22;10403612;28;97200;-61
2022/09/05 15:14:44;;;;;;;5.63;2.03;;;;;;;30.47;37.73;96227.84;10392854;28;96792;-60
2022/09/05 15:19:55;;;;;;;6.53;1.90;;;;;;;30.20;37.52;96230.09;10402307;27;97940;-60
2022/09/05 15:25:18;;;;;;;9.07;2.20;;;;;;;30.43;38.25;96221.41;10395821;28;96791;-60
2022/09/05 15:30:24;;;;;;;5.80;1.52;;;;;;;30.68;37.42;96217.00;10393073;28;96852;-62
2022/09/05 15:35:42;;;;;;;8.30;2.40;;;;;;;30.83;37.42;96213.44;10393417;28;98951;-61
2022/09/05 15:40:45;;;;;;;8.38;2.42;;;;;;;30.96;37.29;96228.19;10398531;28;96894;-61
2022/09/05 15:45:48;;;;;;;5.55;1.90;;;;;;;31.02;37.71;96221.72;10388090;27;97062;-61
2022/09/05 15:50:57;;;;;;;8.80;2.22;;;;;;;31.34;37.08;96212.31;10348023;28;96834;-61
2022/09/05 15:56:17;;;;;;;6.65;2.10;;;;;;;31.05;36.86;96213.06;10390012;27;97654;-61
2022/09/05 16:01:28;;;;;;;8.50;2.17;;;;;;;30.73;36.51;96214.25;10376302;28;96755;-60
2022/09/05 16:06:57;;;;;;;4.70;2.00;;;;;;;30.76;37.03;96212.94;10370347;28;97337;-60
2022/09/05 16:12:30;;;;;;;6.20;1.80;;;;;;;30.37;37.36;96214.41;10358332;28;98047;-61
2022/09/05 16:17:39;;;;;;;8.65;2.13;;;;;;;29.65;38.58;96206.47;10356839;28;98664;-60
2022/09/05 16:23:12;;;;;;;6.00;2.30;;;;;;;29.35;38.85;96201.88;10383290;28;98105;-60
2022/09/05 16:28:38;;;;;;;5.17;1.90;;;;;;;28.96;39.70;96216.59;10375279;27;97285;-61
2022/09/05 16:33:43;;;;;;;6.35;2.55;;;;;;;28.48;40.32;96199.78;10370851;28;96862;-62
2022/09/05 16:38:51;;;;;;;7.72;2.15;;;;;;;28.02;41.18;96208.38;10358914;28;97665;-60
2022/09/05 16:43:59;;;;;;;10.95;2.28;;;;;;;27.60;42.01;96205.66;10345553;28;99282;-61
2022/09/05 16:49:07;;;;;;;10.18;2.33;;;;;;;27.36;42.46;96206.00;10339483;28;97902;-61
2022/09/05 16:54:24;;;;;;;8.02;2.10;;;;;;;27.30;42.38;96212.38;10370661;28;96956;-61
2022/09/05 16:59:29;;;;;;;7.43;1.87;;;;;;;27.15;42.87;96201.53;10337043;28;99023;-62
2022/09/05 17:04:45;;;;;;;8.10;2.33;;;;;;;26.94;43.32;96206.69;10351346;28;98192;-62
2022/09/05 17:10:10;;;;;;;8.60;2.10;;;;;;;26.75;43.82;96209.66;10363786;28;97896;-60
2022/09/05 17:15:16;;;;;;;7.68;2.65;;;;;;;26.60;44.55;96206.81;10384550;28;96845;-62
2022/09/05 17:20:22;;;;;;;10.18;2.33;;;;;;;26.47;45.02;96216.03;10382477;27;96860;-60
2022/09/05 17:25:30;;;;;;;7.80;2.40;;;;;;;26.32;44.84;96208.63;10373407;28;97812;-61
2022/09/05 17:31:01;;;;;;;6.00;2.17;;;;;;;26.08;45.69;96191.94;10389614;28;97871;-61
2022/09/05 17:36:37;;;;;;;11.20;2.65;;;;;;;25.94;46.32;96202.19;10380628;28;96862;-60
2022/09/05 17:42:02;;;;;;;8.15;2.28;;;;;;;25.78;46.59;96200.34;10377611;27;97186;-60
2022/09/05 17:47:12;;;;;;;8.70;2.38;;;;;;;25.61;47.01;96203.03;10330939;28;96843;-61
2022/09/05 17:52:22;;;;;;;7.35;2.08;;;;;;;25.43;47.25;96196.84;10336254;28;98907;-60
2022/09/05 17:57:40;;;;;;;12.70;2.50;;;;;;;25.28;47.93;96191.25;10345434;28;96908;-60
2022/09/05 18:02:54;;;;;;;12.85;2.50;;;;;;;25.03;47.68;96180.97;10345678;28;96830;-60
2022/09/05 18:07:59;;;;;;;;;;;;;;;25.03;47.67;96192.44;10359053;28;96873;-62
2022/09/05 18:13:18;;;;;;;11.75;2.55;;;;;;;24.89;48.59;96191.13;10335811;28;98636;-60
2022/09/05 18:18:34;;;;;;;14.10;3.17;;;;;;;24.79;48.70;96199.72;10345976;28;96926;-62
2022/09/05 18:24:02;;;;;;;16.13;3.10;;;;;;;24.72;48.91;96201.75;10333996;28;97375;-60
2022/09/05 18:29:15;;;;;;;14.27;5.03;;;;;;;24.59;48.95;96202.00;10331585;28;97612;-60
2022/09/05 18:35:12;;;;;;;11.55;2.78;;;;;;;24.49;49.15;96207.97;10343203;28;98634;-61
2022/09/05 18:40:34;;;;;;;13.67;3.00;;;;;;;24.41;50.00;96213.69;10204628;28;97383;-61
2022/09/05 18:45:46;;;;;;;8.98;2.95;;;;;;;24.36;49.33;96219.72;10205223;28;97093;-60
2022/09/05 18:50:56;;;;;;;9.13;2.70;;;;;;;24.28;50.17;96228.91;10239401;28;96894;-60
2022/09/05 18:56:26;;;;;;;11.23;2.80;;;;;;;24.21;49.98;96228.22;10211537;28;98024;-60
2022/09/05 19:01:36;;;;;;;10.02;2.55;;;;;;;24.16;50.65;96235.31;10212650;28;96894;-60
2022/09/05 19:06:45;;;;;;;8.18;2.80;;;;;;;24.03;50.32;96244.34;10212833;28;96950;-60
2022/09/05 19:11:52;;;;;;;12.68;2.85;;;;;;;23.86;50.73;96260.22;10333664;28;99052;-60
2022/09/05 19:17:03;;;;;;;10.82;2.85;;;;;;;23.66;51.46;96265.91;10341745;28;98995;-63
2022/09/05 19:22:13;;;;;;;10.95;2.40;;;;;;;23.50;51.65;96259.38;10361135;28;98429;-60
2022/09/05 19:27:35;;;;;;;11.40;3.00;;;;;;;23.46;51.02;96268.88;10371666;28;96938;-60
2022/09/05 19:33:02;;;;;;;15.48;3.58;;;;;;;23.41;51.49;96255.41;10355455;28;96877;-60
2022/09/05 19:38:26;;;;;;;12.45;3.20;;;;;;;23.46;50.68;96274.19;10361694;28;96836;-60
2022/09/05 19:44:00;;;;;;;11.43;3.17;;;;;;;23.44;50.92;96281.63;10354977;28;99073;-60
2022/09/05 19:49:24;;;;;;;14.70;3.57;;;;;;;23.35;50.41;96279.28;10353029;28;97639;-60
2022/09/05 19:54:29;;;;;;;13.57;3.50;;;;;;;23.28;51.40;96273.22;10370209;28;97069;-60
2022/09/05 19:59:34;;;;;;;13.48;3.30;;;;;;;23.22;51.49;96279.44;10383298;27;97772;-60
2022/09/05 20:04:47;;;;;;;12.77;3.22;;;;;;;23.18;51.69;96275.59;10372092;28;96883;-60
2022/09/05 20:09:56;;;;;;;12.35;2.97;;;;;;;23.00;52.18;96263.94;10370128;28;97897;-61
2022/09/05 20:15:18;;;;;;;17.83;3.35;;;;;;;22.87;52.60;96261.44;10365832;28;97032;-60
2022/09/05 20:20:25;;;;;;;13.88;3.08;;;;;;;22.73;53.18;96260.81;10358537;28;96750;-60
2022/09/05 20:25:33;;;;;;;14.13;4.55;;;;;;;22.63;53.05;96256.03;10335763;28;96880;-60
2022/09/05 20:30:42;;;;;;;13.75;3.05;;;;;;;22.49;53.93;96269.72;10340740;28;97045;-59
2022/09/05 20:35:47;;;;;;;15.65;3.97;;;;;;;22.38;54.50;96269.38;10364535;28;96879;-59
2022/09/05 20:41:16;;;;;;;14.68;4.85;;;;;;;22.30;53.54;96271.50;10371048;28;97009;-63
2022/09/05 20:46:49;;;;;;;15.98;3.83;;;;;;;22.15;53.28;96270.03;10336963;28;96988;-60
2022/09/05 20:52:21;;;;;;;16.10;6.03;;;;;;;22.22;53.61;96292.06;10355683;28;96849;-59
2022/09/05 20:57:43;;;;;;;12.93;3.30;;;;;;;22.15;53.84;96290.50;10347307;28;98691;-60
2022/09/05 21:02:53;;;;;;;12.57;3.63;;;;;;;22.01;54.47;96284.50;10354086;28;96954;-60
2022/09/05 21:08:30;;;;;;;11.95;3.45;;;;;;;21.85;55.16;96285.88;10364645;28;99271;-60
2022/09/05 21:13:36;;;;;;;14.73;3.42;;;;;;;21.77;55.88;96288.81;10351261;28;96814;-59
2022/09/05 21:18:53;;;;;;;20.65;8.50;;;;;;;21.72;55.76;96292.09;10379095;28;99784;-60
2022/09/05 21:24:06;;;;;;;12.63;5.18;;;;;;;21.74;56.53;96295.34;10349828;28;98486;-60
2022/09/05 21:29:25;;;;;;;16.98;5.60;;;;;;;21.71;56.31;96279.84;10361464;28;97381;-60
2022/09/05 21:34:39;;;;;;;14.50;3.47;;;;;;;21.44;57.09;96272.03;10353416;28;97695;-61
2022/09/05 21:39:50;;;;;;;12.88;3.40;;;;;;;21.25;58.13;96300.38;10334734;28;97640;-60
2022/09/05 21:45:02;;;;;;;11.45;3.13;;;;;;;21.15;58.31;96293.88;10332392;28;96768;-60
2022/09/05 21:50:27;;;;;;;14.77;3.80;;;;;;;21.09;58.46;96287.59;10359793;28;96750;-59
2022/09/05 21:55:35;;;;;;;13.73;3.55;;;;;;;21.12;58.27;96293.28;10358257;28;97871;-60
2022/09/05 22:00:58;;;;;;;14.23;3.25;;;;;;;21.08;58.47;96291.25;10335873;28;96797;-59
2022/09/05 22:06:00;;;;;;;15.77;3.45;;;;;;;21.04;59.01;96290.06;10331357;28;96695;-59
2022/09/05 22:11:12;;;;;;;14.85;5.63;;;;;;;20.99;59.24;96282.72;10345585;28;98878;-59
2022/09/05 22:16:15;;;;;;;13.73;4.22;;;;;;;20.95;59.32;96286.84;10334723;28;96881;-64
2022/09/05 22:21:22;;;;;;;13.45;3.70;;;;;;;20.96;59.83;96285.81;10331644;28;96815;-59
2022/09/05 22:26:43;;;;;;;18.60;3.72;;;;;;;20.81;60.40;96279.94;10352523;28;97701;-60
2022/09/05 22:32:07;;;;;;;11.38;3.28;;;;;;;20.67;60.93;96280.00;10369398;28;96723;-60
2022/09/05 22:37:10;;;;;;;;;;;;;;;20.58;60.25;96286.53;10380579;28;96757;-59
2022/09/05 22:42:14;;;;;;;10.63;3.00;;;;;;;20.52;61.20;96287.41;10364642;28;98381;-59
2022/09/05 22:47:18;;;;;;;10.63;2.83;;;;;;;20.49;61.22;96293.13;10367468;28;97832;-60
2022/09/05 22:52:21;;;;;;;12.40;3.45;;;;;;;20.50;61.46;96286.81;10375524;28;96733;-60
2022/09/05 22:57:25;;;;;;;13.25;4.70;;;;;;;20.50;61.35;96281.50;10377957;28;96990;-59
2022/09/05 23:02:28;;;;;;;12.32;3.55;;;;;;;20.48;61.91;96272.94;10366808;28;96818;-60
2022/09/05 23:07:31;;;;;;;11.80;3.75;;;;;;;20.42;62.08;96273.75;10361980;28;97607;-59
2022/09/05 23:12:38;;;;;;;12.15;3.20;;;;;;;20.37;62.09;96275.19;10361777;28;96817;-62
2022/09/05 23:17:41;;;;;;;15.05;3.22;;;;;;;20.24;62.71;96287.69;10382400;28;96754;-61
2022/09/05 23:22:44;;;;;;;10.80;3.22;;;;;;;19.98;63.32;96295.47;10378411;28;97957;-60
2022/09/05 23:27:49;;;;;;;15.52;4.05;;;;;;;19.85;64.07;96308.72;10416086;28;96878;-59
2022/09/05 23:32:52;;;;;;;12.23;3.53;;;;;;;19.76;64.54;96305.41;10399726;28;97096;-59
2022/09/05 23:37:55;;;;;;;12.20;3.53;;;;;;;19.63;64.83;96306.25;10380220;28;97332;-60
2022/09/05 23:43:00;;;;;;;12.07;3.13;;;;;;;19.45;65.83;96308.66;10376079;28;97628;-59
2022/09/05 23:48:03;;;;;;;13.10;3.83;;;;;;;19.41;65.68;96305.59;10375058;28;97982;-61
2022/09/05 23:53:05;;;;;;;10.85;3.13;;;;;;;19.36;65.50;96299.28;10375697;28;98525;-60
2022/09/05 23:58:10;;;;;;;12.40;3.78;;;;;;;19.33;65.35;96291.72;10375509;28;96738;-59
